Time;durP1;ratioP1;P1;durP2;ratioP2;P2;SDS_P1;SDS_P2;PMS_P1;PMS_P2;Temp;Humidity;BMP_temperature;BMP_pressure;BME280_temperature;BME280_humidity;BME280_pressure;Samples;Min_cycle;Max_cycle;Signal;HPM_P1;HPM_P2
2023/06/01 00:00:46;;;;;;;8.27;3.60;;;11.10;99.90;10.30;100335;;;;560623;251;24131;-82
2023/06/01 00:03:10;;;;;;;7.63;3.17;;;11.00;99.90;10.30;100336;;;;560874;251;24170;-80
2023/06/01 00:05:38;;;;;;;8.57;3.13;;;11.00;99.90;10.30;100334;;;;560264;248;24151;-80
2023/06/01 00:08:09;;;;;;;7.23;2.43;;;11.00;99.90;10.30;100333;;;;581588;243;24100;-82
2023/06/01 00:10:35;;;;;;;9.20;3.63;;;11.00;99.90;10.30;100331;;;;562420;251;24133;-81
2023/06/01 00:13:03;;;;;;;9.07;3.47;;;11.00;99.90;10.20;100330;;;;560433;251;24131;-81
2023/06/01 00:15:31;;;;;;;5.17;2.93;;;11.00;99.90;10.20;100322;;;;560607;251;24182;-82
2023/06/01 00:18:00;;;;;;;7.33;3.10;;;11.00;99.90;10.20;100314;;;;562117;251;24163;-83
2023/06/01 00:20:28;;;;;;;10.67;3.57;;;10.90;99.90;10.20;100319;;;;562039;251;24112;-81
2023/06/01 00:22:55;;;;;;;9.10;3.07;;;10.90;99.90;10.20;100319;;;;560608;251;24143;-80
2023/06/01 00:25:22;;;;;;;11.53;3.20;;;10.90;99.90;10.20;100314;;;;571949;247;24110;-79
2023/06/01 00:27:50;;;;;;;5.50;3.10;;;10.90;99.90;10.20;100313;;;;561130;251;24167;-82
2023/06/01 00:30:18;;;;;;;10.00;3.37;;;10.80;99.90;10.30;100316;;;;561331;251;24130;-80
2023/06/01 00:32:46;;;;;;;10.37;3.83;;;11.00;99.90;10.20;100304;;;;561312;251;25173;-81
2023/06/01 00:35:14;;;;;;;8.93;2.67;;;10.90;99.90;10.20;100308;;;;561302;251;24100;-79
2023/06/01 00:37:45;;;;;;;8.27;3.70;;;10.90;99.90;10.10;100307;;;;561202;251;24117;-80
2023/06/01 00:40:13;;;;;;;9.60;3.60;;;10.80;99.90;10.10;100303;;;;564401;250;24198;-80
2023/06/01 00:42:39;;;;;;;8.47;3.47;;;10.80;99.90;10.10;100298;;;;560833;251;24128;-82
2023/06/01 00:45:07;;;;;;;10.40;3.90;;;10.80;99.90;10.10;100294;;;;560865;251;24138;-82
2023/06/01 00:47:35;;;;;;;7.60;3.13;;;10.80;99.90;10.10;100293;;;;561303;251;24131;-81
2023/06/01 00:50:03;;;;;;;5.93;3.10;;;10.80;99.90;10.10;100293;;;;561069;251;24164;-81
2023/06/01 00:52:33;;;;;;;9.33;3.50;;;10.80;99.90;10.00;100292;;;;561044;250;24186;-82
2023/06/01 00:54:59;;;;;;;12.67;4.37;;;10.80;99.90;10.00;100289;;;;560678;251;24174;-81
2023/06/01 00:57:27;;;;;;;13.70;3.73;;;10.80;99.90;10.00;100293;;;;560810;251;24174;-81
2023/06/01 00:59:55;;;;;;;9.27;3.30;;;10.80;99.90;10.00;100286;;;;560965;251;24108;-82
2023/06/01 01:02:23;;;;;;;10.53;4.17;;;10.70;99.90;9.90;100286;;;;560848;251;24106;-81
2023/06/01 01:04:52;;;;;;;9.10;3.57;;;10.70;99.90;10.00;100289;;;;560957;251;24149;-80
2023/06/01 01:07:23;;;;;;;4.87;2.77;;;10.70;99.90;10.00;100286;;;;559706;251;24171;-81
2023/06/01 01:09:57;;;;;;;14.17;3.60;;;10.70;99.90;9.90;100281;;;;560218;251;24160;-82
2023/06/01 01:12:27;;;;;;;6.70;3.37;;;10.60;99.90;9.90;100283;;;;570565;250;24110;-80
2023/06/01 01:14:58;;;;;;;9.90;4.07;;;10.70;99.90;9.90;100281;;;;564049;250;24159;-81
2023/06/01 01:17:42;;;;;;;6.47;3.43;;;10.60;99.90;9.90;100278;;;;563861;248;24105;-82
2023/06/01 01:20:10;;;;;;;9.23;3.40;;;10.60;99.90;9.90;100275;;;;562554;251;24099;-81
2023/06/01 01:22:51;;;;;;;6.17;3.60;;;10.60;99.90;9.80;100277;;;;562010;251;24111;-79
2023/06/01 01:25:43;;;;;;;6.83;3.13;;;10.60;99.90;9.80;100275;;;;564802;250;24094;-81
2023/06/01 01:28:30;;;;;;;9.93;4.33;;;10.60;99.90;9.80;100270;;;;561789;251;24210;-80
2023/06/01 01:31:00;;;;;;;12.37;4.10;;;10.50;99.90;9.80;100276;;;;570050;250;24110;-81
2023/06/01 01:33:25;;;;;;;5.63;3.20;;;10.50;99.90;9.80;100270;;;;569915;251;24115;-83
2023/06/01 01:35:53;;;;;;;9.27;3.47;;;10.50;99.90;9.80;100270;;;;561389;251;25238;-82
2023/06/01 01:38:22;;;;;;;10.50;4.63;;;10.50;99.90;9.80;100263;;;;567284;251;24161;-83
2023/06/01 01:40:52;;;;;;;8.60;3.70;;;10.50;99.90;9.70;100254;;;;575871;247;24094;-82
2023/06/01 01:43:21;;;;;;;8.37;4.40;;;10.40;99.90;9.70;100256;;;;571886;247;24139;-81
2023/06/01 01:45:49;;;;;;;9.03;3.50;;;10.40;99.90;9.60;100262;;;;572279;247;28424;-82
2023/06/01 01:48:17;;;;;;;11.40;4.50;;;10.40;99.90;9.60;100262;;;;572456;247;24109;-81
2023/06/01 01:50:54;;;;;;;14.30;5.00;;;10.40;99.90;9.60;100266;;;;580522;245;24108;-82
2023/06/01 01:53:25;;;;;;;14.53;4.53;;;10.30;99.90;9.60;100264;;;;571606;247;24138;-80
2023/06/01 01:55:50;;;;;;;10.67;4.63;;;10.40;99.90;9.60;100265;;;;571656;247;24133;-83
2023/06/01 01:58:18;;;;;;;7.20;3.60;;;10.30;99.90;9.60;100264;;;;580195;243;24143;-79
2023/06/01 02:00:46;;;;;;;9.90;4.70;;;10.40;99.90;9.60;100271;;;;571489;247;24120;-79
2023/06/01 02:03:17;;;;;;;9.27;3.93;;;10.30;99.90;9.60;100272;;;;571653;247;24097;-78
2023/06/01 02:05:48;;;;;;;12.63;3.83;;;10.40;99.90;9.60;100267;;;;576129;247;24173;-79
2023/06/01 02:08:13;;;;;;;8.10;3.40;;;10.30;99.90;9.50;100267;;;;578567;247;24090;-78
2023/06/01 02:10:41;;;;;;;11.43;4.10;;;10.30;99.90;9.50;100265;;;;580086;247;24165;-78
2023/06/01 02:13:09;;;;;;;16.23;4.13;;;10.20;99.90;9.50;100265;;;;571622;247;24093;-78
2023/06/01 02:15:36;;;;;;;11.90;4.50;;;10.20;99.90;9.50;100266;;;;571601;247;24106;-78
2023/06/01 02:18:05;;;;;;;12.23;4.20;;;10.20;99.90;9.50;100270;;;;571460;247;24107;-80
2023/06/01 02:20:32;;;;;;;12.30;4.70;;;10.20;99.90;9.40;100267;;;;571894;247;24144;-77
2023/06/01 02:23:00;;;;;;;11.47;4.90;;;10.20;99.90;9.40;100254;;;;571773;247;24086;-78
2023/06/01 02:25:28;;;;;;;17.97;5.23;;;10.10;99.90;9.40;100258;;;;571581;247;24217;-81
2023/06/01 02:27:56;;;;;;;6.97;3.57;;;10.10;99.90;9.30;100250;;;;571525;247;24117;-81
2023/06/01 02:30:24;;;;;;;6.40;3.93;;;10.10;99.90;9.30;100249;;;;573032;246;24145;-80
2023/06/01 02:32:52;;;;;;;9.33;4.13;;;10.10;99.90;9.30;100247;;;;572658;246;24188;-79
2023/06/01 02:35:20;;;;;;;13.43;4.83;;;10.00;99.90;9.30;100239;;;;572139;246;24128;-79
2023/06/01 02:37:48;;;;;;;6.63;3.43;;;10.00;99.90;9.30;100249;;;;572379;246;24159;-81
2023/06/01 02:40:16;;;;;;;12.10;4.33;;;9.90;99.90;9.30;100246;;;;575359;246;24195;-81
2023/06/01 02:42:44;;;;;;;11.30;4.40;;;10.10;99.90;9.30;100251;;;;572055;246;24157;-82
2023/06/01 02:45:12;;;;;;;7.33;3.47;;;10.10;99.90;9.30;100240;;;;572140;246;24114;-81
2023/06/01 02:47:40;;;;;;;10.17;3.73;;;10.10;99.90;9.30;100241;;;;571815;247;24095;-80
2023/06/01 02:50:12;;;;;;;8.80;4.20;;;10.10;99.90;9.30;100245;;;;572234;247;24125;-81
2023/06/01 02:52:37;;;;;;;10.50;4.30;;;10.10;99.90;9.40;100234;;;;571939;247;24093;-80
2023/06/01 02:55:08;;;;;;;9.97;4.00;;;10.10;99.90;9.40;100239;;;;571881;247;24192;-79
2023/06/01 02:57:32;;;;;;;8.47;4.20;;;10.10;99.90;9.40;100232;;;;571517;247;24116;-82
2023/06/01 03:00:00;;;;;;;10.60;5.23;;;10.10;99.90;9.40;100221;;;;567154;247;35328;-79
2023/06/01 03:02:28;;;;;;;14.00;6.37;;;10.20;99.90;9.50;100223;;;;566859;247;35366;-79
2023/06/01 03:04:57;;;;;;;7.83;4.63;;;10.20;99.90;9.50;100226;;;;571716;247;25485;-79
2023/06/01 03:07:25;;;;;;;8.90;4.07;;;10.20;99.90;9.60;100220;;;;571465;247;24125;-81
2023/06/01 03:09:53;;;;;;;10.80;4.63;;;10.30;99.90;9.60;100225;;;;571559;247;24149;-78
2023/06/01 03:12:21;;;;;;;11.93;4.37;;;10.40;99.90;9.70;100214;;;;571735;247;24131;-78
2023/06/01 03:14:49;;;;;;;7.33;4.40;;;10.50;99.90;9.80;100212;;;;571551;247;24095;-80
2023/06/01 03:17:17;;;;;;;8.20;3.40;;;10.60;99.90;9.90;100220;;;;571452;247;24081;-80
2023/06/01 03:19:46;;;;;;;9.47;4.53;;;10.80;99.90;10.10;100200;;;;571926;247;24154;-78
2023/06/01 03:22:14;;;;;;;7.83;4.13;;;10.80;99.90;10.80;100200;;;;571869;247;24184;-80
2023/06/01 03:24:42;;;;;;;12.60;4.33;;;11.90;99.90;11.60;100201;;;;571849;247;24086;-79
2023/06/01 03:27:11;;;;;;;13.23;5.70;;;12.70;99.90;12.40;100199;;;;566647;247;35331;-79
2023/06/01 03:29:38;;;;;;;8.27;4.63;;;13.50;99.90;13.10;100209;;;;571685;247;24126;-80
2023/06/01 03:32:09;;;;;;;16.20;4.70;;;14.40;99.90;13.90;100204;;;;575690;247;24080;-80
2023/06/01 03:34:36;;;;;;;10.87;5.03;;;15.20;99.90;14.60;100208;;;;571302;247;24115;-79
2023/06/01 03:37:03;;;;;;;10.50;4.23;;;15.90;99.90;15.40;100205;;;;571482;247;24081;-78
2023/06/01 03:39:33;;;;;;;13.23;5.23;;;16.60;99.90;16.00;100206;;;;571438;247;24085;-79
2023/06/01 03:41:57;;;;;;;9.23;3.93;;;17.30;99.90;16.70;100197;;;;570963;246;24074;-78
2023/06/01 03:44:25;;;;;;;10.07;3.97;;;18.00;99.90;17.30;100206;;;;572726;246;24071;-80
2023/06/01 03:46:53;;;;;;;9.40;4.17;;;18.50;99.90;18.00;100199;;;;570714;246;23102;-77
2023/06/01 03:49:21;;;;;;;11.57;4.40;;;18.60;99.90;18.60;100200;;;;572703;246;24085;-80
2023/06/01 03:51:49;;;;;;;8.50;3.63;;;19.20;99.90;19.10;100190;;;;572553;246;24134;-81
2023/06/01 03:54:17;;;;;;;8.27;3.57;;;19.80;99.90;19.70;100193;;;;572414;246;24111;-80
2023/06/01 03:56:48;;;;;;;12.67;3.50;;;20.40;99.90;20.50;100191;;;;572139;246;23128;-81
2023/06/01 03:59:13;;;;;;;9.60;4.20;;;21.10;99.90;20.80;100191;;;;571768;247;24084;-78
2023/06/01 04:01:45;;;;;;;12.30;3.87;;;22.00;99.90;21.20;100191;;;;571732;247;24110;-79
2023/06/01 04:04:12;;;;;;;8.53;4.43;;;21.90;99.90;21.70;100194;;;;571603;247;24161;-82
2023/06/01 04:06:37;;;;;;;13.50;4.87;;;22.40;99.90;22.10;100193;;;;571933;247;24148;-81
2023/06/01 04:09:09;;;;;;;9.07;3.57;;;23.20;99.90;22.40;100189;;;;561298;251;23167;-80
2023/06/01 04:11:36;;;;;;;13.03;4.83;;;23.20;99.90;23.10;100184;;;;561832;251;24115;-81
2023/06/01 04:14:04;;;;;;;14.07;4.27;;;23.90;98.40;23.40;100182;;;;576040;247;24112;-83
2023/06/01 04:16:32;;;;;;;23.33;6.63;;;24.30;97.60;23.90;100180;;;;561192;251;23117;-80
2023/06/01 04:19:00;;;;;;;15.27;4.20;;;24.80;95.80;24.40;100187;;;;560992;251;23153;-81
2023/06/01 04:21:28;;;;;;;12.07;4.67;;;25.30;93.60;24.90;100183;;;;561152;251;24137;-80
2023/06/01 04:23:56;;;;;;;10.57;4.27;;;25.80;91.40;25.50;100182;;;;561250;251;23130;-80
2023/06/01 04:26:27;;;;;;;11.83;4.37;;;26.30;89.50;26.00;100185;;;;560057;251;23125;-81
2023/06/01 04:28:56;;;;;;;14.80;4.70;;;26.90;85.00;26.10;100187;;;;572491;250;23212;-80
2023/06/01 04:31:23;;;;;;;11.13;4.67;;;27.10;82.00;26.10;100172;;;;561248;251;23116;-82
2023/06/01 04:33:56;;;;;;;14.03;4.67;;;27.20;80.50;26.50;100173;;;;578618;247;23100;-81
2023/06/01 04:36:25;;;;;;;7.07;3.60;;;27.50;78.90;27.10;100166;;;;561311;251;23124;-78
2023/06/01 04:38:57;;;;;;;9.90;4.57;;;28.10;76.40;27.80;100170;;;;568933;247;23110;-79
2023/06/01 04:41:21;;;;;;;11.50;4.37;;;28.70;72.90;28.30;100165;;;;560847;251;23154;-82
2023/06/01 04:43:57;;;;;;;33.22;5.72;;;29.30;70.60;29.00;100163;;;;572242;250;23118;-79
2023/06/01 04:46:26;;;;;;;7.15;3.35;;;30.00;66.70;29.30;100161;;;;561147;250;23272;-79
2023/06/01 04:48:55;;;;;;;14.05;3.45;;;30.50;64.10;29.30;100157;;;;560937;251;23129;-79
2023/06/01 04:51:21;;;;;;;18.35;5.05;;;31.10;60.90;30.00;100157;;;;556611;251;35534;-79
2023/06/01 04:53:49;;;;;;;11.75;4.47;;;31.10;60.80;30.00;100158;;;;562828;251;23124;-81
2023/06/01 04:56:20;;;;;;;8.98;3.95;;;31.30;59.30;30.10;100156;;;;562359;251;23157;-82
2023/06/01 04:58:47;;;;;;;13.23;3.87;;;31.40;58.70;30.30;100160;;;;561651;251;23232;-81
2023/06/01 05:01:15;;;;;;;17.60;3.72;;;31.50;58.10;30.80;100172;;;;566480;251;23172;-81
2023/06/01 05:03:43;;;;;;;10.48;4.10;;;32.00;57.10;31.20;100173;;;;561381;251;24136;-81
2023/06/01 05:06:11;;;;;;;19.42;4.72;;;32.30;56.10;31.50;100175;;;;561368;251;23129;-81
2023/06/01 05:08:42;;;;;;;26.90;6.10;;;32.60;55.40;31.90;100191;;;;561727;251;23122;-81
2023/06/01 05:11:11;;;;;;;15.68;4.57;;;33.00;54.50;31.90;100189;;;;560950;251;23130;-80
2023/06/01 05:13:35;;;;;;;15.65;4.47;;;33.10;54.00;32.50;100191;;;;561310;250;23100;-82
2023/06/01 05:16:06;;;;;;;27.08;5.55;;;33.50;53.40;32.70;100191;;;;572772;250;23099;-80
2023/06/01 05:18:34;;;;;;;17.08;3.75;;;33.70;52.20;33.00;100191;;;;561132;251;23140;-81
2023/06/01 05:21:02;;;;;;;30.37;5.80;;;34.00;51.10;32.80;100190;;;;561463;251;23118;-81
2023/06/01 05:23:34;;;;;;;25.67;4.87;;;33.90;51.10;32.90;100193;;;;567683;251;24166;-80
2023/06/01 05:26:02;;;;;;;7.12;3.92;;;34.10;50.40;33.30;100188;;;;561339;251;24204;-84
2023/06/01 05:28:33;;;;;;;8.00;3.40;;;34.60;49.90;33.80;100179;;;;561441;251;23133;-81
2023/06/01 05:30:59;;;;;;;6.28;3.53;;;35.00;49.40;34.10;100180;;;;560672;251;23123;-83
2023/06/01 05:33:28;;;;;;;26.37;5.28;;;35.60;49.50;34.90;100184;;;;561189;251;23157;-80
2023/06/01 05:35:56;;;;;;;4.78;3.62;;;36.40;47.80;35.70;100180;;;;560897;251;23142;-81
2023/06/01 05:38:24;;;;;;;8.48;3.50;;;36.30;47.70;36.20;100182;;;;565009;251;23125;-83
2023/06/01 05:40:52;;;;;;;22.60;4.32;;;37.00;47.10;36.90;100186;;;;560981;251;23145;-80
2023/06/01 05:43:20;;;;;;;10.63;3.50;;;37.60;46.50;37.40;100181;;;;561321;251;23106;-82
2023/06/01 05:45:48;;;;;;;8.70;3.40;;;38.10;45.30;37.70;100187;;;;560957;251;23212;-82
2023/06/01 05:48:16;;;;;;;4.85;3.40;;;38.30;43.70;38.10;100191;;;;560975;251;23200;-81
2023/06/01 05:50:47;;;;;;;7.43;3.50;;;38.80;43.60;38.20;100195;;;;561334;251;23211;-83
2023/06/01 05:53:12;;;;;;;8.18;3.60;;;38.90;42.80;38.20;100187;;;;560132;251;23148;-83
2023/06/01 05:55:40;;;;;;;8.40;3.33;;;39.00;42.70;38.90;100189;;;;576113;247;23085;-80
2023/06/01 05:58:08;;;;;;;7.37;2.75;;;39.40;42.10;39.10;100188;;;;566101;250;23133;-82
2023/06/01 06:00:36;;;;;;;5.78;3.12;;;39.70;42.10;39.20;100199;;;;560833;251;23126;-81
2023/06/01 06:03:04;;;;;;;9.27;3.03;;;39.80;41.00;39.00;100196;;;;560900;251;24147;-81
2023/06/01 06:05:31;;;;;;;8.80;3.37;;;39.70;41.00;39.20;100200;;;;562260;251;23135;-82
2023/06/01 06:08:00;;;;;;;9.38;3.22;;;39.80;40.90;40.00;100201;;;;562142;251;23110;-82
2023/06/01 06:10:27;;;;;;;6.15;3.33;;;40.30;40.60;40.30;100203;;;;564886;250;23135;-82
2023/06/01 06:12:55;;;;;;;11.85;3.42;;;40.70;39.60;40.50;100198;;;;561547;251;23183;-83
2023/06/01 06:15:23;;;;;;;10.88;3.47;;;40.90;39.60;40.90;100200;;;;561458;251;23132;-83
2023/06/01 06:17:51;;;;;;;9.95;3.78;;;41.30;39.40;41.50;100205;;;;561448;251;23124;-82
2023/06/01 06:20:21;;;;;;;24.37;4.22;;;42.20;38.70;41.80;100208;;;;561579;251;23110;-80
2023/06/01 06:22:55;;;;;;;7.30;3.78;;;42.80;38.00;42.40;100211;;;;562100;251;23114;-79
2023/06/01 06:25:20;;;;;;;16.12;4.47;;;43.10;37.20;42.70;100205;;;;571717;247;23094;-80
2023/06/01 06:27:49;;;;;;;9.85;3.22;;;43.40;37.10;42.80;100216;;;;569914;251;23180;-81
2023/06/01 06:30:20;;;;;;;9.23;3.72;;;43.70;37.00;43.20;100215;;;;561637;251;23184;-83
2023/06/01 06:32:46;;;;;;;9.80;3.60;;;43.80;36.40;43.40;100213;;;;561097;251;23119;-83
2023/06/01 06:35:14;;;;;;;8.82;3.47;;;43.80;36.40;43.70;100220;;;;561129;251;23145;-81
2023/06/01 06:37:43;;;;;;;19.77;4.03;;;43.90;35.60;43.70;100211;;;;561280;251;23162;-82
2023/06/01 06:40:10;;;;;;;30.00;5.22;;;44.10;35.50;43.90;100208;;;;561345;251;23126;-82
2023/06/01 06:42:38;;;;;;;22.33;3.85;;;44.30;35.20;43.90;100206;;;;559771;251;23146;-78
2023/06/01 06:45:06;;;;;;;28.87;4.50;;;44.40;35.00;43.50;100203;;;;560948;251;23125;-81
2023/06/01 06:47:34;;;;;;;17.80;3.70;;;44.10;34.70;43.60;100211;;;;569172;251;24157;-80
2023/06/01 06:50:02;;;;;;;7.60;2.87;;;44.00;34.70;43.80;100215;;;;561064;251;23233;-80
2023/06/01 06:52:30;;;;;;;12.95;3.95;;;44.10;34.90;43.80;100223;;;;561378;251;23141;-80
2023/06/01 06:54:57;;;;;;;4.85;3.17;;;44.20;34.90;44.00;100227;;;;561712;251;23151;-80
2023/06/01 06:57:25;;;;;;;10.48;3.53;;;44.30;35.00;44.30;100214;;;;571841;247;23100;-80
2023/06/01 06:59:53;;;;;;;19.48;4.47;;;44.60;34.90;44.20;100222;;;;560944;251;23154;-80
2023/06/01 07:02:21;;;;;;;6.10;3.33;;;44.50;34.70;44.30;100226;;;;560913;251;23178;-82
2023/06/01 07:04:49;;;;;;;8.48;3.22;;;44.50;34.90;44.50;100226;;;;560823;251;23115;-83
2023/06/01 07:07:17;;;;;;;23.67;4.20;;;44.60;34.60;45.00;100226;;;;560977;251;23187;-80
2023/06/01 07:09:46;;;;;;;13.82;3.92;;;45.00;34.60;45.40;100227;;;;560877;251;23176;-79
2023/06/01 07:12:13;;;;;;;10.10;3.42;;;45.50;34.30;45.00;100221;;;;561130;251;23176;-80
2023/06/01 07:14:41;;;;;;;11.25;3.83;;;45.20;33.80;45.30;100236;;;;561047;251;23153;-79
2023/06/01 07:17:09;;;;;;;14.27;3.40;;;45.30;34.10;45.60;100225;;;;562243;251;24183;-80
2023/06/01 07:19:37;;;;;;;14.32;3.30;;;45.70;33.70;45.60;100227;;;;562074;251;23146;-80
2023/06/01 07:22:07;;;;;;;19.33;4.12;;;45.70;33.00;45.70;100221;;;;562115;251;23180;-83
2023/06/01 07:24:32;;;;;;;12.25;3.33;;;45.90;33.00;45.60;100226;;;;570091;251;23160;-81
2023/06/01 07:27:00;;;;;;;5.85;2.42;;;45.90;33.10;45.50;100231;;;;561849;251;23122;-82
2023/06/01 07:29:28;;;;;;;14.13;3.70;;;45.80;33.20;45.00;100229;;;;561815;251;23131;-82
2023/06/01 07:31:57;;;;;;;8.35;2.70;;;44.50;33.30;44.00;100229;;;;573519;250;23085;-81
2023/06/01 07:34:27;;;;;;;12.02;3.72;;;43.90;34.30;43.50;100232;;;;561313;251;23107;-81
2023/06/01 07:36:58;;;;;;;4.97;2.67;;;43.70;34.00;43.40;100227;;;;561235;251;23111;-81
2023/06/01 07:39:22;;;;;;;14.75;3.45;;;43.70;34.00;43.30;100234;;;;561499;251;24156;-81
2023/06/01 07:41:53;;;;;;;9.30;3.45;;;43.40;34.40;42.90;100230;;;;575989;247;23086;-81
2023/06/01 07:44:18;;;;;;;8.20;2.85;;;43.10;34.50;43.00;100226;;;;561196;251;23209;-81
2023/06/01 07:46:46;;;;;;;9.40;3.42;;;43.10;34.80;43.10;100234;;;;564252;250;23114;-81
2023/06/01 07:49:18;;;;;;;4.30;2.65;;;43.20;34.90;43.30;100237;;;;561014;251;23149;-82
2023/06/01 07:51:42;;;;;;;7.32;3.55;;;43.30;34.60;42.90;100234;;;;561049;251;24232;-80
2023/06/01 07:54:13;;;;;;;8.18;3.20;;;43.10;34.40;42.70;100237;;;;561281;251;23117;-81
2023/06/01 07:56:38;;;;;;;17.60;4.05;;;42.90;34.60;42.60;100227;;;;561159;251;23223;-80
2023/06/01 07:59:06;;;;;;;8.75;3.65;;;42.70;34.90;43.10;100226;;;;560993;251;24135;-79
2023/06/01 08:01:37;;;;;;;11.43;3.08;;;43.10;34.60;43.60;100223;;;;560924;251;23114;-81
2023/06/01 08:04:01;;;;;;;8.95;3.05;;;43.50;34.80;44.60;100220;;;;561171;251;23124;-82
2023/06/01 08:06:35;;;;;;;13.32;3.78;;;45.30;33.50;45.50;100221;;;;575732;247;23117;-82
2023/06/01 08:09:00;;;;;;;12.15;3.15;;;45.40;33.20;45.20;100231;;;;560652;251;23197;-82
2023/06/01 08:11:27;;;;;;;8.32;2.87;;;45.50;33.10;45.40;100225;;;;561582;251;23128;-81
2023/06/01 08:13:59;;;;;;;12.88;3.78;;;45.50;33.00;45.60;100233;;;;575715;247;23083;-82
2023/06/01 08:16:26;;;;;;;12.75;3.37;;;46.00;32.70;45.80;100221;;;;569451;251;23153;-82
2023/06/01 08:18:56;;;;;;;15.18;3.72;;;45.90;32.80;45.60;100221;;;;561744;251;23128;-83
2023/06/01 08:21:21;;;;;;;19.40;4.60;;;45.80;32.90;45.50;100225;;;;566527;247;35603;-83
2023/06/01 08:23:51;;;;;;;8.93;2.87;;;45.50;32.50;44.90;100232;;;;561321;251;23239;-82
2023/06/01 08:26:22;;;;;;;5.45;3.20;;;44.90;33.10;44.20;100237;;;;561394;251;23116;-82
2023/06/01 08:28:52;;;;;;;10.65;3.17;;;44.80;33.00;44.00;100222;;;;572848;246;23164;-82
2023/06/01 08:31:23;;;;;;;22.92;4.57;;;44.40;33.60;44.70;100222;;;;561869;251;23162;-82
2023/06/01 08:33:51;;;;;;;5.18;2.53;;;44.80;33.50;45.20;100232;;;;570477;251;23217;-82
2023/06/01 08:36:22;;;;;;;6.85;2.75;;;45.30;33.40;44.90;100220;;;;561463;251;23175;-80
2023/06/01 08:38:51;;;;;;;6.72;3.45;;;45.30;32.80;44.90;100221;;;;561519;251;23223;-83
2023/06/01 08:41:25;;;;;;;23.38;4.28;;;45.20;32.70;44.70;100222;;;;561442;251;23243;-81
2023/06/01 08:43:59;;;;;;;8.95;2.92;;;45.20;33.40;45.00;100222;;;;573006;250;23197;-82
2023/06/01 08:46:30;;;;;;;14.68;3.17;;;45.20;33.40;45.80;100230;;;;561230;251;23177;-81
2023/06/01 08:48:58;;;;;;;7.53;3.10;;;46.00;32.60;46.10;100221;;;;560825;251;23162;-81
2023/06/01 08:51:29;;;;;;;10.77;3.10;;;46.40;32.10;46.30;100225;;;;569745;251;23118;-81
2023/06/01 08:53:57;;;;;;;11.80;3.10;;;46.80;32.30;46.10;100224;;;;580182;247;23095;-81
2023/06/01 08:56:22;;;;;;;8.85;3.12;;;46.80;31.70;45.30;100220;;;;561507;251;23200;-82
2023/06/01 08:58:50;;;;;;;11.77;3.78;;;46.10;31.70;45.00;100221;;;;559583;251;23191;-82
2023/06/01 09:01:22;;;;;;;26.50;4.28;;;45.80;31.80;45.40;100210;;;;561025;251;23173;-81
2023/06/01 09:03:45;;;;;;;6.87;2.65;;;45.80;32.60;46.00;100213;;;;572269;250;24200;-83
2023/06/01 09:06:13;;;;;;;11.82;3.80;;;46.40;32.20;46.70;100209;;;;560876;251;23167;-81
2023/06/01 09:08:44;;;;;;;9.45;3.92;;;47.10;31.70;47.20;100219;;;;561036;251;23178;-81
2023/06/01 09:11:09;;;;;;;14.00;3.90;;;47.80;31.50;47.20;100219;;;;560717;251;23138;-83
2023/06/01 09:13:37;;;;;;;9.90;3.78;;;48.00;31.20;47.20;100214;;;;556221;251;35484;-81
2023/06/01 09:16:05;;;;;;;4.93;2.47;;;48.20;30.80;47.00;100213;;;;560994;251;23130;-80
2023/06/01 09:18:33;;;;;;;6.32;3.17;;;48.50;30.60;47.70;100206;;;;560785;251;23128;-80
2023/06/01 09:21:17;;;;;;;12.45;3.67;;;49.10;30.70;48.30;100198;;;;564118;250;23138;-81
2023/06/01 09:23:45;;;;;;;10.20;3.28;;;49.00;30.00;48.30;100210;;;;569142;251;23134;-80
2023/06/01 09:26:13;;;;;;;13.90;3.33;;;49.30;29.80;48.40;100208;;;;561108;251;23236;-79
2023/06/01 09:29:00;;;;;;;10.02;3.47;;;49.30;29.80;47.70;100207;;;;569898;250;23181;-79
2023/06/01 09:31:44;;;;;;;5.68;2.87;;;49.00;29.90;48.00;100206;;;;561477;251;23128;-79
2023/06/01 09:34:19;;;;;;;11.60;3.05;;;49.30;29.70;48.10;100206;;;;561731;251;23183;-80
2023/06/01 09:36:45;;;;;;;12.00;3.33;;;49.30;29.60;47.90;100206;;;;571988;247;24126;-79
2023/06/01 09:39:09;;;;;;;4.07;2.42;;;49.00;30.30;47.90;100202;;;;566711;249;24175;-81
2023/06/01 09:42:06;;;;;;;16.02;3.40;;;49.10;30.00;48.40;100206;;;;572969;246;23111;-79
2023/06/01 09:44:29;;;;;;;17.35;3.22;;;49.60;29.70;48.80;100212;;;;562133;251;23144;-80
2023/06/01 09:47:06;;;;;;;9.10;3.00;;;50.00;29.40;48.60;100209;;;;561554;251;23141;-80
2023/06/01 09:49:39;;;;;;;2.85;2.15;;;50.00;29.50;48.50;100204;;;;570222;251;23143;-83
2023/06/01 09:52:08;;;;;;;2.95;2.50;;;49.60;29.50;48.20;100200;;;;565333;251;23126;-82
2023/06/01 09:54:38;;;;;;;15.73;3.60;;;49.50;29.60;48.30;100198;;;;560078;250;35228;-81
2023/06/01 09:57:06;;;;;;;7.62;3.20;;;49.70;29.50;47.60;100206;;;;564559;246;24133;-82
2023/06/01 09:59:46;;;;;;;5.75;2.67;;;49.00;29.70;46.50;100206;;;;564153;250;23103;-81
2023/06/01 10:02:16;;;;;;;8.65;3.10;;;48.00;30.00;45.80;100205;;;;564143;250;23137;-80
2023/06/01 10:04:50;;;;;;;9.48;3.47;;;47.40;30.10;45.40;100207;;;;564261;250;24159;-80
2023/06/01 10:07:18;;;;;;;7.30;2.40;;;46.80;30.50;45.50;100208;;;;563694;250;23144;-82
2023/06/01 10:09:49;;;;;;;4.93;2.90;;;46.80;30.60;45.30;100205;;;;572142;250;23093;-81
2023/06/01 10:12:16;;;;;;;6.93;3.12;;;46.60;30.60;45.10;100203;;;;563972;250;23116;-80
2023/06/01 10:14:47;;;;;;;7.60;2.80;;;46.30;31.10;45.20;100199;;;;560050;250;23094;-80
2023/06/01 10:17:14;;;;;;;9.57;3.45;;;46.30;31.30;44.90;100203;;;;560622;250;23139;-80
2023/06/01 10:19:44;;;;;;;9.23;2.65;;;46.10;31.30;44.30;100199;;;;564538;250;23104;-80
2023/06/01 10:22:08;;;;;;;10.38;3.25;;;45.60;31.40;43.50;100191;;;;563967;250;23117;-81
2023/06/01 10:24:40;;;;;;;21.62;4.30;;;44.80;32.00;43.30;100198;;;;572648;250;23097;-81
2023/06/01 10:27:28;;;;;;;20.15;3.20;;;44.50;32.50;42.50;100202;;;;570372;251;23131;-82
2023/06/01 10:29:56;;;;;;;5.90;2.03;;;43.80;32.60;41.60;100197;;;;577079;247;26051;-81
2023/06/01 10:32:48;;;;;;;8.70;2.37;;;43.00;32.90;40.80;100203;;;;562548;251;23187;-80
2023/06/01 10:35:34;;;;;;;4.37;2.20;;;42.40;33.60;39.90;100195;;;;570453;250;23220;-82
2023/06/01 10:38:12;;;;;;;5.65;2.42;;;41.40;34.40;38.60;100202;;;;562143;251;23138;-81
2023/06/01 10:40:42;;;;;;;13.60;2.85;;;39.90;35.60;36.90;100202;;;;561169;251;23141;-79
2023/06/01 10:43:11;;;;;;;10.93;2.85;;;36.40;39.80;35.70;100197;;;;561518;251;23304;-81
2023/06/01 10:45:41;;;;;;;8.27;2.70;;;36.30;39.10;34.20;100187;;;;571947;247;23097;-80
2023/06/01 10:48:12;;;;;;;8.90;2.17;;;33.40;42.60;32.90;100188;;;;561211;251;23139;-81
2023/06/01 10:50:40;;;;;;;5.68;2.70;;;33.20;42.50;31.60;100190;;;;560536;251;24103;-81
2023/06/01 10:53:30;;;;;;;18.80;3.17;;;32.00;44.00;30.60;100200;;;;562598;251;23130;-82
2023/06/01 10:56:26;;;;;;;12.82;2.17;;;29.90;47.00;29.70;100195;;;;566868;251;24119;-81
2023/06/01 10:59:09;;;;;;;2.65;2.03;;;29.80;46.90;29.10;100198;;;;570838;248;23128;-80
2023/06/01 11:01:43;;;;;;;29.33;3.58;;;28.50;49.50;28.40;100190;;;;572238;246;24129;-79
2023/06/01 11:04:12;;;;;;;6.57;2.50;;;28.50;49.40;28.00;100195;;;;561716;251;25188;-80
2023/06/01 11:06:45;;;;;;;7.47;2.57;;;28.10;50.60;27.40;100186;;;;566521;250;23093;-81
2023/06/01 11:09:15;;;;;;;10.13;2.27;;;27.60;51.20;27.10;100190;;;;572704;250;23115;-81
2023/06/01 11:11:58;;;;;;;18.57;2.43;;;26.80;53.70;26.50;100195;;;;564325;250;23135;-81
2023/06/01 11:14:24;;;;;;;4.40;1.70;;;26.80;53.70;26.20;100195;;;;561114;251;23148;-80
2023/06/01 11:16:54;;;;;;;14.53;2.47;;;26.40;54.50;26.10;100190;;;;561249;251;23122;-82